createdAt,value
2023-03-12T00:01:21.448Z,9.57
2023-03-12T00:04:10.780Z,9.20
2023-03-12T00:07:00.175Z,9.63
2023-03-12T00:09:49.469Z,9.50
2023-03-12T00:12:38.776Z,9.70
2023-03-12T00:15:28.994Z,9.30
2023-03-12T00:18:19.761Z,9.70
2023-03-12T00:21:10.014Z,9.50
2023-03-12T00:23:59.377Z,9.73
2023-03-12T00:26:49.103Z,9.70
2023-03-12T00:29:38.369Z,9.30
2023-03-12T00:32:27.710Z,9.60
2023-03-12T00:35:18.579Z,9.60
2023-03-12T00:38:07.952Z,9.60
2023-03-12T00:40:57.315Z,9.40
2023-03-12T00:43:46.754Z,9.50
2023-03-12T00:46:36.111Z,9.53
2023-03-12T00:49:25.413Z,9.50
2023-03-12T00:52:16.146Z,9.53
2023-03-12T00:55:06.221Z,9.10
2023-03-12T00:57:55.542Z,9.30
2023-03-12T01:00:45.084Z,9.60
2023-03-12T01:03:34.610Z,9.50
2023-03-12T01:06:23.993Z,9.40
2023-03-12T01:09:14.962Z,9.33
2023-03-12T01:12:04.533Z,9.57
2023-03-12T01:14:53.902Z,9.40
2023-03-12T01:17:43.279Z,9.10
2023-03-12T01:20:32.659Z,9.50
2023-03-12T01:23:20.308Z,9.50
2023-03-12T01:26:09.397Z,9.27
2023-03-12T01:28:58.895Z,9.30
2023-03-12T01:31:46.991Z,9.40
2023-03-12T01:34:35.619Z,9.10
2023-03-12T01:37:24.944Z,9.23
2023-03-12T01:40:17.572Z,9.30
2023-03-12T01:43:30.510Z,9.13
2023-03-12T01:46:27.824Z,9.60
2023-03-12T01:49:21.547Z,9.47
2023-03-12T01:52:15.595Z,9.10
2023-03-12T01:55:15.799Z,9.10
2023-03-12T01:58:08.187Z,9.50
2023-03-12T02:00:59.085Z,9.23
2023-03-12T02:03:53.139Z,9.50
2023-03-12T02:06:49.639Z,9.30
2023-03-12T02:09:43.600Z,9.30
2023-03-12T02:12:33.272Z,9.47
2023-03-12T02:15:23.559Z,9.30
2023-03-12T02:18:18.742Z,9.40
2023-03-12T02:21:17.415Z,9.20
2023-03-12T02:24:16.809Z,9.33
2023-03-12T02:27:09.360Z,9.50
2023-03-12T02:29:58.828Z,9.20
2023-03-12T02:32:49.935Z,9.60
2023-03-12T02:35:40.119Z,9.30
2023-03-12T02:38:43.595Z,9.13
2023-03-12T02:41:35.868Z,9.20
2023-03-12T02:44:29.275Z,9.50
2023-03-12T02:47:18.683Z,9.33
2023-03-12T02:50:09.739Z,9.10
2023-03-12T02:52:59.125Z,9.23
2023-03-12T02:55:48.597Z,9.63
2023-03-12T02:58:37.900Z,9.57
2023-03-12T03:01:29.511Z,9.60
2023-03-12T03:04:18.908Z,9.13
2023-03-12T03:07:08.371Z,9.10
2023-03-12T03:10:03.933Z,9.00
2023-03-12T03:12:51.631Z,9.03
2023-03-12T03:15:40.073Z,9.00
2023-03-12T03:18:30.162Z,9.10
2023-03-12T03:21:19.090Z,9.70
2023-03-12T03:24:08.991Z,9.13
2023-03-12T03:26:56.772Z,9.10
2023-03-12T03:29:46.199Z,9.10
2023-03-12T03:32:35.584Z,9.10
2023-03-12T03:35:26.468Z,9.40
2023-03-12T03:38:15.859Z,9.30
2023-03-12T03:41:05.702Z,9.50
2023-03-12T03:43:59.321Z,9.33
2023-03-12T03:46:49.937Z,9.20
2023-03-12T03:49:39.284Z,9.17
2023-03-12T03:52:29.992Z,8.90
2023-03-12T03:55:19.851Z,9.40
2023-03-12T03:58:09.295Z,9.10
2023-03-12T04:00:58.756Z,9.50
2023-03-12T04:03:48.368Z,9.20
2023-03-12T04:06:37.823Z,9.63
2023-03-12T04:09:30.559Z,9.07
2023-03-12T04:12:19.613Z,9.10
2023-03-12T04:15:08.670Z,9.20
2023-03-12T04:17:56.772Z,9.20
2023-03-12T04:20:47.604Z,8.90
2023-03-12T04:23:35.853Z,9.00
2023-03-12T04:26:26.750Z,9.30
2023-03-12T04:29:17.064Z,8.90
2023-03-12T04:32:05.192Z,9.10
2023-03-12T04:34:54.928Z,9.43
2023-03-12T04:37:42.914Z,9.00
2023-03-12T04:40:31.901Z,9.03
2023-03-12T04:43:21.537Z,9.33
2023-03-12T04:46:12.207Z,9.20
2023-03-12T04:49:03.166Z,9.33
2023-03-12T04:51:52.501Z,9.10
2023-03-12T04:54:42.925Z,9.53
2023-03-12T04:57:30.671Z,9.30
2023-03-12T05:00:22.136Z,8.97
2023-03-12T05:03:11.626Z,9.00
2023-03-12T05:05:59.702Z,9.30
2023-03-12T05:08:47.463Z,9.10
2023-03-12T05:11:39.582Z,9.10
2023-03-12T05:14:28.144Z,8.97
2023-03-12T05:17:17.501Z,9.10
2023-03-12T05:20:07.352Z,9.10
2023-03-12T05:22:56.926Z,9.10
2023-03-12T05:25:46.264Z,9.27
2023-03-12T05:28:36.425Z,9.00
2023-03-12T05:31:28.063Z,9.07
2023-03-12T05:34:18.946Z,8.90
2023-03-12T05:37:08.957Z,8.90
2023-03-12T05:39:58.423Z,9.00
2023-03-12T05:42:47.988Z,8.80
2023-03-12T05:45:37.456Z,9.10
2023-03-12T05:48:26.868Z,9.00
2023-03-12T05:51:16.875Z,9.00
2023-03-12T05:54:05.280Z,9.30
2023-03-12T05:56:53.368Z,9.23
2023-03-12T05:59:44.839Z,9.30
2023-03-12T06:02:34.258Z,9.00
2023-03-12T06:05:24.008Z,9.00
2023-03-12T06:08:15.060Z,9.10
2023-03-12T06:11:04.739Z,9.10
2023-03-12T06:13:54.719Z,9.10
2023-03-12T06:16:44.186Z,9.00
2023-03-12T06:19:33.594Z,9.00
2023-03-12T06:22:23.157Z,9.00
2023-03-12T06:25:13.985Z,9.00
2023-03-12T06:28:04.180Z,9.20
2023-03-12T06:30:55.087Z,9.23
2023-03-12T06:33:42.975Z,9.20
2023-03-12T06:36:30.587Z,9.30
2023-03-12T06:39:19.928Z,9.10
2023-03-12T06:42:12.846Z,9.70
2023-03-12T06:45:02.140Z,9.17
2023-03-12T06:47:51.426Z,9.10
2023-03-12T06:50:40.728Z,9.00
2023-03-12T06:53:30.195Z,9.00
2023-03-12T06:56:19.546Z,8.80
2023-03-12T06:59:10.350Z,8.83
2023-03-12T07:01:59.760Z,8.80
2023-03-12T07:04:47.793Z,8.67
2023-03-12T07:07:35.253Z,8.90
2023-03-12T07:10:22.958Z,8.83
2023-03-12T07:13:12.986Z,8.70
2023-03-12T07:16:04.560Z,8.60
2023-03-12T07:18:53.948Z,8.60
2023-03-12T07:21:43.221Z,8.70
2023-03-12T07:24:32.562Z,8.73
2023-03-12T07:27:21.932Z,8.73
2023-03-12T07:30:13.148Z,9.10
2023-03-12T07:33:05.974Z,8.83
2023-03-12T07:35:55.458Z,8.70
2023-03-12T07:38:44.845Z,8.30
2023-03-12T07:41:35.330Z,8.60
2023-03-12T07:44:26.367Z,8.63
2023-03-12T07:47:24.251Z,8.63
2023-03-12T07:50:16.104Z,8.57
2023-03-12T07:53:05.820Z,8.60
2023-03-12T07:55:57.726Z,8.40
2023-03-12T07:58:47.319Z,8.53
2023-03-12T08:01:36.870Z,8.60
2023-03-12T08:04:26.408Z,8.37
2023-03-12T08:07:17.243Z,8.70
2023-03-12T08:10:09.988Z,8.93
2023-03-12T08:12:59.622Z,8.70
2023-03-12T08:15:50.285Z,8.50
2023-03-12T08:18:40.213Z,8.80
2023-03-12T08:21:29.564Z,8.60
2023-03-12T08:24:21.564Z,8.67
2023-03-12T08:27:12.155Z,8.40
2023-03-12T08:30:01.519Z,8.40
2023-03-12T08:32:51.075Z,8.30
2023-03-12T08:35:40.655Z,8.57
2023-03-12T08:38:30.121Z,8.33
2023-03-12T08:41:20.953Z,8.30
2023-03-12T08:44:10.673Z,8.40
2023-03-12T08:47:00.101Z,8.40
2023-03-12T08:49:49.459Z,8.20
2023-03-12T08:52:38.965Z,8.60
2023-03-12T08:55:29.106Z,8.50
2023-03-12T08:58:19.785Z,8.80
2023-03-12T09:01:11.687Z,8.70
2023-03-12T09:04:02.481Z,8.37
2023-03-12T09:06:51.828Z,8.70
2023-03-12T09:09:41.192Z,9.07
2023-03-12T09:12:30.493Z,9.60
2023-03-12T09:15:21.289Z,9.00
2023-03-12T09:18:11.074Z,9.00
2023-03-12T09:21:01.881Z,8.90
2023-03-12T09:23:51.671Z,9.10
2023-03-12T09:26:40.976Z,8.73
2023-03-12T09:29:30.403Z,8.53
2023-03-12T09:32:21.250Z,8.60
2023-03-12T09:35:10.947Z,8.90
2023-03-12T09:38:01.174Z,8.50
2023-03-12T09:40:50.903Z,8.57
2023-03-12T09:43:44.846Z,8.13
2023-03-12T09:46:40.267Z,8.37
2023-03-12T09:49:37.603Z,8.43
2023-03-12T09:52:33.170Z,8.57
2023-03-12T09:55:24.130Z,8.47
2023-03-12T09:58:16.012Z,8.60
2023-03-12T10:01:27.604Z,8.60
2023-03-12T10:04:58.505Z,8.80
2023-03-12T10:07:53.388Z,8.80
2023-03-12T10:10:55.214Z,8.57
2023-03-12T10:13:58.031Z,8.33
2023-03-12T10:17:13.298Z,8.30
2023-03-12T10:20:33.898Z,8.43
2023-03-12T10:23:49.416Z,8.40
2023-03-12T10:26:41.762Z,8.40
2023-03-12T10:29:34.321Z,8.50
2023-03-12T10:32:30.776Z,8.40
2023-03-12T10:35:24.329Z,8.70
2023-03-12T10:38:19.436Z,8.70
2023-03-12T10:41:17.127Z,8.50
2023-03-12T10:44:10.657Z,8.63
2023-03-12T10:47:08.402Z,8.70
2023-03-12T10:50:16.300Z,8.67
2023-03-12T10:53:23.783Z,9.00
2023-03-12T10:56:15.898Z,8.80
2023-03-12T10:59:22.112Z,8.57
2023-03-12T11:02:32.979Z,9.00
2023-03-12T11:05:26.411Z,9.00
2023-03-12T11:08:27.165Z,8.80
2023-03-12T11:11:33.058Z,8.80
2023-03-12T11:14:25.150Z,8.87
2023-03-12T11:17:24.210Z,8.70
2023-03-12T11:20:31.487Z,9.00
2023-03-12T11:23:27.833Z,8.83
2023-03-12T11:26:22.333Z,8.80
2023-03-12T11:29:24.096Z,8.77
2023-03-12T11:32:20.103Z,9.00
2023-03-12T11:35:12.981Z,8.70
2023-03-12T11:38:10.548Z,8.63
2023-03-12T11:41:20.672Z,8.80
2023-03-12T11:44:28.876Z,8.87
2023-03-12T11:47:41.097Z,8.80
2023-03-12T11:50:48.683Z,8.70
2023-03-12T11:54:16.362Z,8.90
2023-03-12T11:57:13.145Z,8.73
2023-03-12T12:00:14.799Z,8.70
2023-03-12T12:03:45.639Z,8.73
2023-03-12T12:06:48.345Z,8.90
2023-03-12T12:09:45.956Z,8.93
2023-03-12T12:12:51.417Z,8.80
2023-03-12T12:15:53.209Z,9.07
2023-03-12T12:18:59.734Z,9.13
2023-03-12T12:22:05.180Z,8.87
2023-03-12T12:25:29.326Z,9.20
2023-03-12T12:28:54.480Z,8.70
2023-03-12T12:31:52.131Z,8.80
2023-03-12T12:35:07.359Z,9.10
2023-03-12T12:38:00.110Z,9.20
2023-03-12T12:40:54.488Z,9.20
2023-03-12T12:43:49.797Z,9.00
2023-03-12T12:46:43.608Z,8.70
2023-03-12T12:49:40.683Z,8.73
2023-03-12T12:52:30.878Z,8.70
2023-03-12T12:55:27.170Z,9.60
2023-03-12T12:58:22.437Z,10.00
2023-03-12T13:01:15.561Z,9.43
2023-03-12T13:04:12.082Z,9.17
2023-03-12T13:07:35.091Z,9.10
2023-03-12T13:10:57.566Z,9.10
2023-03-12T13:14:14.348Z,8.80
2023-03-12T13:17:32.097Z,8.90
2023-03-12T13:20:23.801Z,9.13
2023-03-12T13:23:34.289Z,9.00
2023-03-12T13:26:32.280Z,8.90
2023-03-12T13:29:37.673Z,9.43
2023-03-12T13:33:07.444Z,8.90
2023-03-12T13:36:10.885Z,9.37
2023-03-12T13:39:21.170Z,9.40
2023-03-12T13:42:37.663Z,9.43
2023-03-12T13:45:31.877Z,9.20
2023-03-12T13:48:24.010Z,9.43
2023-03-12T13:51:18.886Z,9.10
2023-03-12T13:54:18.835Z,9.40
2023-03-12T13:57:13.847Z,9.50
2023-03-12T14:00:07.137Z,9.10
2023-03-12T14:03:21.444Z,9.40
2023-03-12T14:06:13.952Z,8.97
2023-03-12T14:09:24.355Z,8.90
2023-03-12T14:12:23.638Z,8.97
2023-03-12T14:15:26.682Z,8.90
2023-03-12T14:18:22.747Z,9.40
2023-03-12T14:21:16.579Z,9.10
2023-03-12T14:24:19.403Z,9.17
2023-03-12T14:27:16.682Z,9.93
2023-03-12T14:30:14.769Z,9.77
2023-03-12T14:33:05.378Z,9.50
2023-03-12T14:36:02.942Z,9.40
2023-03-12T14:38:57.486Z,9.20
2023-03-12T14:41:55.989Z,9.27
2023-03-12T14:45:12.880Z,9.50
2023-03-12T14:48:02.435Z,9.57
2023-03-12T14:50:51.941Z,9.90
2023-03-12T14:53:41.269Z,9.67
2023-03-12T14:56:35.146Z,9.77
2023-03-12T14:59:32.202Z,9.10
2023-03-12T15:02:23.011Z,9.73
2023-03-12T15:05:19.465Z,10.10
2023-03-12T15:08:08.947Z,9.80
2023-03-12T15:11:00.428Z,9.80
2023-03-12T15:13:50.387Z,9.77
2023-03-12T15:16:41.828Z,10.17
2023-03-12T15:19:36.610Z,9.70
2023-03-12T15:22:28.865Z,9.60
2023-03-12T15:25:26.606Z,9.50
2023-03-12T15:28:29.931Z,9.47
2023-03-12T15:31:19.349Z,9.90
2023-03-12T15:34:08.444Z,9.80
2023-03-12T15:36:56.100Z,8.97
2023-03-12T15:39:51.400Z,9.30
2023-03-12T15:42:43.035Z,9.37
2023-03-12T15:45:38.802Z,9.67
2023-03-12T15:48:31.120Z,9.53
2023-03-12T15:51:36.057Z,9.60
2023-03-12T15:54:28.372Z,9.30
2023-03-12T15:57:25.866Z,9.53
2023-03-12T16:00:24.701Z,9.20
2023-03-12T16:03:18.391Z,9.40
2023-03-12T16:06:12.683Z,9.40
2023-03-12T16:09:06.194Z,9.40
2023-03-12T16:11:56.650Z,9.67
2023-03-12T16:14:47.560Z,9.37
2023-03-12T16:17:35.047Z,9.30
2023-03-12T16:20:22.700Z,9.30
2023-03-12T16:23:12.671Z,9.20
2023-03-12T16:26:06.288Z,9.73
2023-03-12T16:28:55.872Z,9.50
2023-03-12T16:31:43.832Z,9.30
2023-03-12T16:34:31.442Z,9.27
2023-03-12T16:37:20.814Z,9.60
2023-03-12T16:40:14.499Z,9.30
2023-03-12T16:43:08.899Z,9.10
2023-03-12T16:45:58.345Z,9.30
2023-03-12T16:48:53.567Z,9.10
2023-03-12T16:51:41.357Z,9.30
2023-03-12T16:54:29.028Z,9.20
2023-03-12T16:57:24.642Z,9.53
2023-03-12T17:00:18.882Z,10.23
2023-03-12T17:03:07.809Z,9.57
2023-03-12T17:05:55.470Z,9.93
2023-03-12T17:08:45.266Z,9.30
2023-03-12T17:11:33.829Z,9.20
2023-03-12T17:14:24.027Z,9.30
2023-03-12T17:17:14.743Z,9.10
2023-03-12T17:20:02.431Z,9.40
2023-03-12T17:22:50.185Z,9.20
2023-03-12T17:25:41.928Z,9.10
2023-03-12T17:28:31.292Z,8.90
2023-03-12T17:31:19.131Z,9.00
2023-03-12T17:34:08.851Z,8.70
2023-03-12T17:36:56.476Z,8.90
2023-03-12T17:39:44.050Z,8.90
2023-03-12T17:42:34.665Z,8.80
2023-03-12T17:45:22.889Z,9.23
2023-03-12T17:48:10.762Z,8.77
2023-03-12T17:51:00.095Z,8.70
2023-03-12T17:53:49.786Z,9.07
2023-03-12T17:56:39.218Z,8.90
2023-03-12T17:59:26.942Z,8.93
2023-03-12T18:02:16.261Z,8.90
2023-03-12T18:05:04.057Z,8.80
2023-03-12T18:07:53.155Z,8.70
2023-03-12T18:10:42.576Z,9.07
2023-03-12T18:13:30.296Z,8.70
2023-03-12T18:16:20.165Z,8.80
2023-03-12T18:19:09.551Z,8.80
2023-03-12T18:21:57.119Z,9.00
2023-03-12T18:24:46.089Z,8.70
2023-03-12T18:27:33.752Z,8.70
2023-03-12T18:30:23.128Z,8.80
2023-03-12T18:33:12.421Z,8.70
2023-03-12T18:36:01.998Z,8.70
2023-03-12T18:38:49.553Z,8.93
2023-03-12T18:41:41.935Z,8.70
2023-03-12T18:44:31.738Z,8.90
2023-03-12T18:47:21.101Z,8.60
2023-03-12T18:50:12.453Z,8.80
2023-03-12T18:53:01.789Z,8.70
2023-03-12T18:55:55.424Z,8.70
2023-03-12T18:58:44.368Z,8.73
2023-03-12T19:01:32.001Z,8.70
2023-03-12T19:04:22.018Z,8.80
2023-03-12T19:07:11.572Z,8.80
2023-03-12T19:10:04.274Z,8.70
2023-03-12T19:12:54.322Z,8.67
2023-03-12T19:15:45.211Z,9.00
2023-03-12T19:18:34.543Z,8.70
2023-03-12T19:21:24.073Z,9.00
2023-03-12T19:24:13.364Z,9.00
2023-03-12T19:27:01.186Z,8.87
2023-03-12T19:29:50.544Z,8.90
2023-03-12T19:32:43.626Z,8.80
2023-03-12T19:35:32.057Z,9.10
2023-03-12T19:38:21.605Z,8.67
2023-03-12T19:41:11.319Z,8.87
2023-03-12T19:44:00.604Z,8.90
2023-03-12T19:46:49.907Z,9.03
2023-03-12T19:49:38.978Z,8.90
2023-03-12T19:52:28.360Z,9.10
2023-03-12T19:55:17.859Z,8.90
2023-03-12T19:58:08.204Z,8.83
2023-03-12T20:01:00.536Z,8.77
2023-03-12T20:03:49.892Z,9.00
2023-03-12T20:06:39.192Z,8.97
2023-03-12T20:09:26.824Z,11.03
2023-03-12T20:12:14.672Z,9.93
2023-03-12T20:15:04.786Z,9.80
2023-03-12T20:17:56.827Z,9.20
2023-03-12T20:20:48.181Z,9.20
2023-03-12T20:23:38.874Z,8.90
2023-03-12T20:26:28.151Z,8.93
2023-03-12T20:29:17.457Z,9.00
2023-03-12T20:32:07.060Z,9.10
2023-03-12T20:34:56.641Z,9.00
2023-03-12T20:37:45.962Z,9.20
2023-03-12T20:40:35.120Z,9.10
2023-03-12T20:43:22.770Z,8.90
2023-03-12T20:46:10.853Z,9.00
2023-03-12T20:49:00.182Z,8.90
2023-03-12T20:51:49.503Z,8.80
2023-03-12T20:54:39.269Z,9.27
2023-03-12T20:57:30.260Z,8.87
2023-03-12T21:00:19.180Z,9.10
2023-03-12T21:03:06.448Z,9.00
2023-03-12T21:05:55.176Z,9.10
2023-03-12T21:08:44.520Z,9.50
2023-03-12T21:11:33.928Z,8.80
2023-03-12T21:14:22.831Z,9.00
2023-03-12T21:17:13.691Z,9.47
2023-03-12T21:20:04.172Z,9.30
2023-03-12T21:22:53.495Z,9.20
2023-03-12T21:25:42.992Z,9.10
2023-03-12T21:28:33.282Z,12.13
2023-03-12T21:31:22.707Z,10.20
2023-03-12T21:34:12.131Z,10.03
2023-03-12T21:37:01.397Z,9.90
2023-03-12T21:39:50.634Z,10.10
2023-03-12T21:42:40.101Z,9.57
2023-03-12T21:45:29.504Z,9.53
2023-03-12T21:48:20.280Z,9.77
2023-03-12T21:51:12.563Z,9.60
2023-03-12T21:54:01.910Z,9.80
2023-03-12T21:56:50.687Z,9.87
2023-03-12T21:59:38.536Z,9.43
2023-03-12T22:02:29.512Z,9.53
2023-03-12T22:05:20.176Z,9.40
2023-03-12T22:08:09.489Z,9.30
2023-03-12T22:10:58.772Z,9.43
2023-03-12T22:13:48.594Z,9.63
2023-03-12T22:16:38.026Z,9.80
2023-03-12T22:19:27.452Z,9.47
2023-03-12T22:22:18.374Z,9.77
2023-03-12T22:25:08.572Z,9.50
2023-03-12T22:27:57.855Z,9.77
2023-03-12T22:30:47.387Z,9.77
2023-03-12T22:33:38.452Z,9.70
2023-03-12T22:36:28.330Z,9.90
2023-03-12T22:39:18.100Z,9.43
2023-03-12T22:42:06.306Z,9.67
2023-03-12T22:44:55.651Z,9.57
2023-03-12T22:47:45.286Z,9.73
2023-03-12T22:50:34.839Z,10.00
2023-03-12T22:53:24.500Z,9.70
2023-03-12T22:56:14.772Z,9.67
2023-03-12T22:59:04.200Z,10.10
2023-03-12T23:01:51.712Z,10.20
2023-03-12T23:04:39.360Z,9.60
2023-03-12T23:07:28.961Z,9.80
2023-03-12T23:10:16.565Z,10.40
2023-03-12T23:13:09.061Z,10.00
2023-03-12T23:16:03.764Z,9.80
2023-03-12T23:18:51.868Z,10.17
2023-03-12T23:21:39.386Z,9.80
2023-03-12T23:24:27.045Z,9.90
2023-03-12T23:27:16.513Z,10.27
2023-03-12T23:30:06.966Z,9.87
2023-03-12T23:32:54.700Z,9.90
2023-03-12T23:35:42.558Z,9.60
2023-03-12T23:38:32.989Z,10.30
2023-03-12T23:41:22.947Z,10.00
2023-03-12T23:44:10.594Z,9.63
2023-03-12T23:46:59.518Z,10.27
2023-03-12T23:49:48.823Z,9.50
2023-03-12T23:52:36.559Z,9.63
2023-03-12T23:55:25.932Z,9.97
2023-03-12T23:58:13.452Z,9.77
